Eira — OJJP — position and weather

sailwx.info

Track history (hours):
 
Tides and Currents Weather Stations Pressure Air Temp Water Temp Dewpoint Dewpoint Depression Visibility Wind Speed Wind Dir Waves Ship Positions

Eira

Last reported at 2017-Jul-22 22:30 UTC. Time now 2017-Jul-22 22:29 UTC.
Position N 59°53' E 030°11'.

Length 157 m; draft 6.2 m.

Type: Cargo ship. MMSI: 230935000.

Date/timePositionNaut miles runAvg speedWind from/ knotsBaromVisibWave heightAir tempDewpointWater temp
2017-Jul-22 22:30N 59°53' E 030°11'0 0.0
2017-Jul-22 22:00N 59°53' E 030°11'0 0.0
2017-Jul-22 21:30N 59°53' E 030°11'0 0.0
2017-Jul-22 21:00N 59°53' E 030°11'0 0.0
2017-Jul-22 20:30N 59°53' E 030°11'0 0.0
2017-Jul-22 20:00N 59°53' E 030°11'0 0.0
2017-Jul-22 19:30N 59°53' E 030°11'0 0.0
2017-Jul-22 18:57N 59°53' E 030°11'0 0.0
2017-Jul-22 18:29N 59°53' E 030°11'0 0.0
2017-Jul-22 18:00N 59°53' E 030°11'0 0.0
2017-Jul-22 17:30N 59°53' E 030°11'0 0.0
2017-Jul-22 17:00N 59°53' E 030°11'0 0.0
2017-Jul-22 16:30N 59°53' E 030°11'0 0.0
2017-Jul-22 16:00N 59°53' E 030°11'0 0.0
2017-Jul-22 15:26N 59°53' E 030°11'0 0.0
2017-Jul-22 15:00N 59°53' E 030°11'0 0.0
2017-Jul-22 13:59N 59°53' E 030°11'0 0.0
2017-Jul-22 13:30N 59°53' E 030°11'0 0.0
2017-Jul-22 13:00N 59°53' E 030°11'0 0.0
2017-Jul-22 12:30N 59°53' E 030°11'0 0.0
2017-Jul-22 12:00N 59°53' E 030°11'0 0.0
2017-Jul-22 11:30N 59°53' E 030°11'0 0.0
2017-Jul-22 11:00N 59°53' E 030°11'0 0.0
2017-Jul-22 10:29N 59°53' E 030°11'0 0.0
2017-Jul-22 10:00N 59°53' E 030°11'0 0.0
2017-Jul-22 09:30N 59°53' E 030°11'0 0.3
2017-Jul-22 08:54N 59°53' E 030°12'0 0.7
2017-Jul-22 08:30N 59°52' E 030°12'0 0.0
2017-Jul-22 07:57N 59°52' E 030°12'0 0.0
2017-Jul-22 07:30N 59°52' E 030°12'0 0.0
2017-Jul-22 07:00N 59°52' E 030°12'0 0.0
2017-Jul-22 06:30N 59°52' E 030°12'0 0.0
2017-Jul-22 06:00N 59°52' E 030°12'0 0.0
2017-Jul-22 05:30N 59°52' E 030°12'0 0.0
2017-Jul-22 05:00N 59°52' E 030°12'1 1.2
2017-Jul-22 04:30N 59°53' E 030°11'3 6.0
2017-Jul-22 04:00N 59°54' E 030°06'611.1
2017-Jul-22 03:30N 59°56' E 029°55'911.2
2017-Jul-22 02:44N 59°60' E 029°40'311.9
2017-Jul-22 02:27N 60°01' E 029°33'5 9.6
2017-Jul-22 01:57N 60°01' E 029°24'3 5.9
2017-Jul-22 01:30N 60°01' E 029°19'0 0.1
2017-Jul-22 00:59N 60°01' E 029°19'0 0.1
2017-Jul-22 00:29N 60°01' E 029°19'0 0.0
2017-Jul-21 23:56N 60°01' E 029°19'0 0.1
2017-Jul-21 23:29N 60°01' E 029°19'0 0.0
2017-Jul-21 22:59N 60°01' E 029°19'0 0.0
2017-Jul-21 22:29N 60°01' E 029°19'0 0.0
2017-Jul-21 21:59N 60°01' E 029°19'0 0.0
2017-Jul-21 21:29N 60°01' E 029°19'0 0.0
2017-Jul-21 20:56N 60°01' E 029°19'0 0.0
2017-Jul-21 20:29N 60°01' E 029°19'0 0.0
2017-Jul-21 19:59N 60°01' E 029°19'0 0.0
2017-Jul-21 19:29N 60°01' E 029°19'0 0.0
2017-Jul-21 18:59N 60°01' E 029°19'0 0.0
2017-Jul-21 18:29N 60°01' E 029°19'0 0.0
2017-Jul-21 17:59N 60°01' E 029°19'0 0.0
2017-Jul-21 17:30N 60°01' E 029°19'0 0.0
2017-Jul-21 16:59N 60°01' E 029°19'0 0.0
2017-Jul-21 16:30N 60°01' E 029°19'0 0.0
2017-Jul-21 15:59N 60°01' E 029°19'0 0.0
2017-Jul-21 15:29N 60°01' E 029°19'0 0.0
2017-Jul-21 14:59N 60°01' E 029°19'0 0.0
2017-Jul-21 14:29N 60°01' E 029°19'0 0.0
2017-Jul-21 13:53N 60°01' E 029°19'0 0.2
2017-Jul-21 13:26N 60°01' E 029°19'0 0.1
2017-Jul-21 12:56N 60°01' E 029°19'0 0.0
2017-Jul-21 12:29N 60°01' E 029°19'0 0.0
2017-Jul-21 11:53N 60°01' E 029°19'0 0.0
2017-Jul-21 11:20N 60°01' E 029°19'0 0.0
2017-Jul-21 10:59N 60°01' E 029°19'0 0.0
2017-Jul-21 10:29N 60°01' E 029°19'0 0.0
2017-Jul-21 09:59N 60°01' E 029°19'0 0.0
2017-Jul-21 09:29N 60°01' E 029°19'0 0.0
2017-Jul-21 08:59N 60°01' E 029°19'0 0.1
2017-Jul-21 08:29N 60°01' E 029°19'0 0.1
2017-Jul-21 07:59N 60°01' E 029°19'0 0.1
2017-Jul-21 07:29N 60°01' E 029°19'0 0.1
2017-Jul-21 06:56N 60°01' E 029°19'0 0.1
2017-Jul-21 06:29N 60°01' E 029°19'0 0.0
2017-Jul-21 05:59N 60°01' E 029°19'0 0.0
2017-Jul-21 05:29N 60°01' E 029°19'0 0.0
2017-Jul-21 04:59N 60°01' E 029°19'0 0.0
2017-Jul-21 04:08N 60°01' E 029°19'0 0.0
2017-Jul-21 03:59N 60°01' E 029°19'0 0.0
2017-Jul-21 02:47N 60°01' E 029°19'0 0.0
2017-Jul-21 02:17N 60°01' E 029°19'0 0.0
2017-Jul-21 01:41N 60°01' E 029°19'0 0.0
2017-Jul-21 01:24N 60°01' E 029°19'0 0.1
2017-Jul-21 00:59N 60°01' E 029°19'0 0.0
2017-Jul-21 00:29N 60°01' E 029°19'0 0.1
2017-Jul-20 23:56N 60°01' E 029°19'0 0.0
2017-Jul-20 23:29N 60°01' E 029°19'0 0.2
2017-Jul-20 22:59N 60°01' E 029°19'0 0.8
2017-Jul-20 22:30N 60°01' E 029°19'510.4
2017-Jul-20 22:01N 60°02' E 029°08'714.6
2017-Jul-20 21:31N 60°02' E 028°54'816.1
2017-Jul-20 21:00N 60°02' E 028°37'612.6
2017-Jul-20 20:30N 60°03' E 028°25'714.5
2017-Jul-20 20:01N 60°08' E 028°13'816.2
2017-Jul-20 19:30N 60°10' E 027°58'612.4
2017-Jul-20 19:01N 60°10' E 027°45'714.4
2017-Jul-20 18:30N 60°07' E 027°32'714.4
2017-Jul-20 18:01N 60°03' E 027°20'714.3
2017-Jul-20 17:31N 59°59' E 027°08'713.9
2017-Jul-20 17:00N 59°59' E 026°54'714.8
2017-Jul-20 16:30N 59°59' E 026°39'714.2
2017-Jul-20 16:00N 59°57' E 026°25'714.6
2017-Jul-20 15:31N 59°55' E 026°12'714.5
2017-Jul-20 15:01N 59°53' E 025°58'1514.5
2017-Jul-20 14:01N 59°50' E 025°29'714.5
2017-Jul-20 13:30N 59°48' E 025°15'714.7
2017-Jul-20 13:01N 59°47' E 025°01'714.7
2017-Jul-20 12:31N 59°46' E 024°46'714.6
2017-Jul-20 12:01N 59°44' E 024°32'714.5
2017-Jul-20 11:31N 59°42' E 024°18'714.5
2017-Jul-20 11:00N 59°40' E 024°05'714.4
2017-Jul-20 10:31N 59°38' E 023°51'714.2
2017-Jul-20 10:01N 59°35' E 023°38'714.3
2017-Jul-20 09:31N 59°33' E 023°25'714.4
2017-Jul-20 09:01N 59°30' E 023°12'714.3
2017-Jul-20 08:30N 59°28' E 022°58'714.5
2017-Jul-20 08:01N 59°26' E 022°45'714.3
2017-Jul-20 07:31N 59°23' E 022°31'714.3
2017-Jul-20 07:01N 59°21' E 022°18'714.4
2017-Jul-20 06:31N 59°19' E 022°04'714.4
2017-Jul-20 06:01N 59°17' E 021°51'714.4
2017-Jul-20 05:31N 59°15' E 021°38'714.4
2017-Jul-20 05:01N 59°13' E 021°24'714.4
2017-Jul-20 04:31N 59°10' E 021°11'714.5
2017-Jul-20 04:01N 59°08' E 020°57'714.5
2017-Jul-20 03:31N 59°06' E 020°44'714.4
2017-Jul-20 03:01N 59°04' E 020°31'714.4
2017-Jul-20 02:30N 59°01' E 020°17'714.4
2017-Jul-20 01:59N 58°59' E 020°03'814.5
2017-Jul-20 01:24N 58°56' E 019°48'614.5
2017-Jul-20 01:00N 58°54' E 019°37'914.7
2017-Jul-20 00:22N 58°51' E 019°20'1914.1
2017-Jul-19 23:01N 58°45' E 018°46'014.0
2017-Jul-19 23:00N 58°45' E 018°45'714.1
2017-Jul-19 22:31N 58°43' E 018°32'3114.0
2017-Jul-19 20:20N 58°37' E 017°35'514.3
2017-Jul-19 20:01N 58°38' E 017°26'612.5
2017-Jul-19 19:31N 58°37' E 017°14'5 9.2
2017-Jul-19 19:00N 58°40' E 017°07'0 0.0
2017-Jul-19 18:30N 58°40' E 017°07'0 0.0
2017-Jul-19 17:55N 58°40' E 017°07'0 0.0
2017-Jul-19 17:28N 58°40' E 017°07'0 0.0
2017-Jul-19 16:55N 58°40' E 017°07'0 0.0
2017-Jul-19 16:28N 58°40' E 017°07'0 0.0
2017-Jul-19 15:58N 58°40' E 017°07'0 0.0
2017-Jul-19 15:25N 58°40' E 017°07'0 0.0
2017-Jul-19 14:58N 58°40' E 017°07'0 0.0
2017-Jul-19 14:28N 58°40' E 017°07'0 0.0
2017-Jul-19 13:58N 58°40' E 017°07'0 0.0
2017-Jul-19 13:28N 58°40' E 017°07'0 0.0
2017-Jul-19 12:58N 58°40' E 017°07'0 0.0
2017-Jul-19 12:28N 58°40' E 017°07'0 0.0
2017-Jul-19 11:55N 58°40' E 017°07'0 0.0
2017-Jul-19 11:28N 58°40' E 017°07'0 0.0
2017-Jul-19 10:49N 58°40' E 017°07'0 0.0
2017-Jul-19 10:25N 58°40' E 017°07'0 0.0
2017-Jul-19 09:58N 58°40' E 017°07'0 0.0
2017-Jul-19 09:28N 58°40' E 017°07'0 0.0
2017-Jul-19 08:58N 58°40' E 017°07'0 0.0
2017-Jul-19 08:28N 58°40' E 017°07'0 0.0
2017-Jul-19 07:58N 58°40' E 017°07'0 0.0
2017-Jul-19 07:16N 58°40' E 017°07'0 0.0
2017-Jul-19 06:58N 58°40' E 017°07'0 0.0
2017-Jul-19 06:28N 58°40' E 017°07'0 0.0
2017-Jul-19 05:58N 58°40' E 017°07'0 0.0
2017-Jul-19 05:28N 58°40' E 017°07'0 0.0
2017-Jul-19 04:43N 58°40' E 017°07'0 0.0
2017-Jul-19 04:28N 58°40' E 017°07'0 0.0
2017-Jul-19 03:58N 58°40' E 017°07'0 0.0
2017-Jul-19 03:28N 58°40' E 017°07'0 0.0
2017-Jul-19 02:58N 58°40' E 017°07'0 0.0
2017-Jul-19 02:28N 58°40' E 017°07'0 0.0
2017-Jul-19 01:58N 58°40' E 017°07'0 0.0
2017-Jul-19 01:25N 58°40' E 017°07'0 0.0
2017-Jul-19 00:58N 58°40' E 017°07'0 0.0
2017-Jul-19 00:28N 58°40' E 017°07'0 0.0
2017-Jul-18 23:58N 58°40' E 017°07'0 0.0
2017-Jul-18 23:28N 58°40' E 017°07'0 0.0
2017-Jul-18 22:58N 58°40' E 017°07'0 0.0
2017-Jul-18 22:28N 58°40' E 017°07'0 0.0
2017-Jul-18 21:58N 58°40' E 017°07'0 0.0
2017-Jul-18 21:28N 58°40' E 017°07'0 0.0
2017-Jul-18 20:58N 58°40' E 017°07'0 0.0
2017-Jul-18 20:28N 58°40' E 017°07'0 0.0
2017-Jul-18 19:58N 58°40' E 017°07'0 0.0
2017-Jul-18 19:22N 58°40' E 017°07'0 0.0
2017-Jul-18 18:58N 58°40' E 017°07'0 0.0
2017-Jul-18 18:28N 58°40' E 017°07'0 0.0
2017-Jul-18 17:58N 58°40' E 017°07'0 0.0
2017-Jul-18 17:28N 58°40' E 017°07'0 0.0
2017-Jul-18 16:52N 58°40' E 017°07'0 0.0
2017-Jul-18 16:16N 58°40' E 017°07'0 0.0
2017-Jul-18 15:58N 58°40' E 017°07'0 0.0
2017-Jul-18 15:28N 58°40' E 017°07'0 0.0
2017-Jul-18 15:00N 58°40' E 017°07'5 5.4
2017-Jul-18 14:00N 58°37' E 017°16'612.7
2017-Jul-18 13:30N 58°38' E 017°28'6110.7
2017-Jul-18 07:50N 59°07' E 019°10'411.4
2017-Jul-18 07:30N 59°10' E 019°15'611.5
2017-Jul-18 07:00N 59°13' E 019°24'611.3
2017-Jul-18 06:30N 59°18' E 019°31'611.4
2017-Jul-18 06:00N 59°21' E 019°39'611.8
2017-Jul-18 05:30N 59°26' E 019°48'611.6
2017-Jul-18 05:00N 59°30' E 019°56'611.8
2017-Jul-18 04:30N 59°36' E 019°58'612.0
2017-Jul-18 04:00N 59°41' E 019°51'612.0
2017-Jul-18 03:30N 59°45' E 019°44'612.3
2017-Jul-18 03:00N 59°50' E 019°36'612.2
2017-Jul-18 02:31N 59°55' E 019°28'612.2
2017-Jul-18 02:00N 59°59' E 019°20'612.2
2017-Jul-18 01:31N 60°04' E 019°13'612.4
2017-Jul-18 01:01N 60°09' E 019°05'612.0
2017-Jul-18 00:31N 60°15' E 019°01'612.3
2017-Jul-18 00:01N 60°21' E 018°60'612.3
2017-Jul-17 23:31N 60°27' E 018°60'612.2
2017-Jul-17 23:00N 60°33' E 019°01'611.9
2017-Jul-17 22:31N 60°39' E 019°04'611.7
2017-Jul-17 22:00N 60°44' E 019°07'611.4
2017-Jul-17 21:30N 60°50' E 019°10'611.8
2017-Jul-17 21:00N 60°56' E 019°13'612.5
2017-Jul-17 20:31N 61°02' E 019°16'611.5
2017-Jul-17 20:00N 61°07' E 019°19'611.3
2017-Jul-17 19:30N 61°13' E 019°21'611.7
2017-Jul-17 19:00N 61°18' E 019°24'611.6
2017-Jul-17 18:30N 61°24' E 019°27'611.5
2017-Jul-17 18:00N 61°30' E 019°30'611.6
2017-Jul-17 17:31N 61°35' E 019°33'611.6
2017-Jul-17 16:57N 61°41' E 019°36'511.6
2017-Jul-17 16:30N 61°46' E 019°39'611.7
2017-Jul-17 16:00N 61°52' E 019°42'611.6
2017-Jul-17 15:31N 61°58' E 019°45'611.3
2017-Jul-17 15:00N 62°03' E 019°47'611.3
2017-Jul-17 14:30N 62°09' E 019°49'611.3
2017-Jul-17 14:00N 62°14' E 019°52'611.1
2017-Jul-17 13:30N 62°20' E 019°54'611.3
2017-Jul-17 13:00N 62°25' E 019°57'611.6
2017-Jul-17 12:30N 62°31' E 019°60'611.7
2017-Jul-17 12:01N 62°37' E 020°03'611.8
2017-Jul-17 11:30N 62°42' E 020°06'611.9
2017-Jul-17 11:00N 62°48' E 020°09'611.9
2017-Jul-17 10:30N 62°54' E 020°13'612.0
2017-Jul-17 10:00N 62°60' E 020°16'612.0
2017-Jul-17 09:30N 63°06' E 020°19'612.0
2017-Jul-17 09:00N 63°11' E 020°22'611.8
2017-Jul-17 08:31N 63°17' E 020°25'611.5
2017-Jul-17 08:00N 63°22' E 020°30'611.5
2017-Jul-17 07:30N 63°27' E 020°37'611.2
2017-Jul-17 07:00N 63°32' E 020°43'611.5
2017-Jul-17 06:30N 63°34' E 020°56'510.9
2017-Jul-17 06:00N 63°37' E 021°06'611.2
2017-Jul-17 05:30N 63°41' E 021°12'611.2
2017-Jul-17 05:00N 63°46' E 021°18'511.0
2017-Jul-17 04:30N 63°51' E 021°24'510.8
2017-Jul-17 04:00N 63°56' E 021°30'511.0
2017-Jul-17 03:30N 64°01' E 021°35'610.9
2017-Jul-17 02:58N 64°06' E 021°41'510.9
2017-Jul-17 02:30N 64°11' E 021°47'611.3
2017-Jul-17 02:00N 64°16' E 021°53'611.2
2017-Jul-17 01:30N 64°21' E 021°58'611.2
2017-Jul-17 01:00N 64°26' E 022°04'611.5
2017-Jul-17 00:30N 64°31' E 022°11'611.6
2017-Jul-17 00:00N 64°36' E 022°17'611.5
2017-Jul-16 23:30N 64°41' E 022°23'611.4
2017-Jul-16 23:00N 64°46' E 022°29'611.2
2017-Jul-16 22:27N 64°51' E 022°36'511.4
2017-Jul-16 22:00N 64°56' E 022°41'611.3
2017-Jul-16 21:30N 65°01' E 022°46'611.9
2017-Jul-16 21:00N 65°07' E 022°48'712.8
2017-Jul-16 20:30N 65°14' E 022°48'510.4
2017-Jul-16 20:00N 65°19' E 022°47'5 9.9
2017-Jul-16 19:30N 65°23' E 022°40'511.0
2017-Jul-16 19:00N 65°27' E 022°31'510.4
2017-Jul-16 18:30N 65°30' E 022°22'3 5.8
2017-Jul-16 17:59N 65°33' E 022°17'0 0.0
2017-Jul-16 16:29N 65°33' E 022°17'0 0.0
2017-Jul-16 15:56N 65°33' E 022°17'0 0.0
2017-Jul-16 09:48N 65°33' E 022°17'0 0.0
2017-Jul-16 09:26N 65°33' E 022°17'0 0.0
2017-Jul-16 08:58N 65°33' E 022°17'0 0.0
2017-Jul-16 08:29N 65°33' E 022°17'0 0.0
2017-Jul-16 07:57N 65°33' E 022°17'0 0.0
2017-Jul-16 07:30N 65°33' E 022°17'0 0.0
2017-Jul-16 06:59N 65°33' E 022°17'0 0.0
2017-Jul-16 06:30N 65°33' E 022°17'0 0.0
2017-Jul-16 05:59N 65°33' E 022°17'0 0.0
2017-Jul-16 05:29N 65°33' E 022°17'0 0.0
2017-Jul-16 04:59N 65°33' E 022°17'0 0.0
2017-Jul-16 04:29N 65°33' E 022°17'0 0.0
2017-Jul-16 03:59N 65°33' E 022°17'0 0.0
2017-Jul-16 03:29N 65°33' E 022°17'0 0.0
2017-Jul-16 02:57N 65°33' E 022°17'0 0.0
2017-Jul-16 02:27N 65°33' E 022°17'0 0.0
2017-Jul-16 01:54N 65°33' E 022°17'0 0.0
2017-Jul-16 01:29N 65°33' E 022°17'0 0.0
2017-Jul-15 22:12N 65°33' E 022°17'0 0.0
2017-Jul-15 21:59N 65°33' E 022°17'0 0.0
2017-Jul-15 21:27N 65°33' E 022°17'0 0.0
2017-Jul-15 20:58N 65°33' E 022°17'0 0.0
2017-Jul-15 20:29N 65°33' E 022°17'0 0.0
2017-Jul-15 19:58N 65°33' E 022°17'0 0.0
2017-Jul-15 19:29N 65°33' E 022°17'0 0.0
2017-Jul-15 18:58N 65°33' E 022°17'0 0.0
2017-Jul-15 18:29N 65°33' E 022°17'0 0.0
2017-Jul-15 17:59N 65°33' E 022°17'0 0.0
2017-Jul-15 17:29N 65°33' E 022°17'0 0.0
2017-Jul-15 16:59N 65°33' E 022°17'0 0.0
2017-Jul-15 16:29N 65°33' E 022°17'0 0.0
2017-Jul-15 15:59N 65°33' E 022°17'0 0.0
2017-Jul-15 15:26N 65°33' E 022°17'0 0.0
2017-Jul-15 15:00N 65°33' E 022°17'1 0.9
2017-Jul-15 13:59N 65°33' E 022°15'0 0.0
2017-Jul-15 13:29N 65°33' E 022°15'0 0.0
2017-Jul-15 12:59N 65°33' E 022°15'0 0.0
2017-Jul-15 12:29N 65°33' E 022°15'0 0.0
2017-Jul-15 11:59N 65°33' E 022°15'0 0.0
2017-Jul-13 18:11N 65°33' E 022°16'0 0.0
2017-Jul-13 17:53N 65°33' E 022°16'0 0.0
2017-Jul-13 16:44N 65°33' E 022°16'0 0.0
2017-Jul-13 11:38N 65°33' E 022°16'  
Track history (hours):
 
Tides and Currents Weather Stations Pressure Air Temp Water Temp Dewpoint Dewpoint Depression Visibility Wind Speed Wind Dir Waves Ship Positions

Eira

Last reported at 2017-Jul-22 22:30 UTC. Time now 2017-Jul-22 22:29 UTC.
Position N 59°53' E 030°11'.

Length 157 m; draft 6.2 m.

Type: Cargo ship. MMSI: 230935000.

Date/timePositionNaut miles runAvg speedWind from/ knotsBaromVisibWave heightAir tempDewpointWater temp
2017-Jul-22 22:30N 59°53' E 030°11'0 0.0
2017-Jul-22 22:00N 59°53' E 030°11'0 0.0
2017-Jul-22 21:30N 59°53' E 030°11'0 0.0
2017-Jul-22 21:00N 59°53' E 030°11'0 0.0
2017-Jul-22 20:30N 59°53' E 030°11'0 0.0
2017-Jul-22 20:00N 59°53' E 030°11'0 0.0
2017-Jul-22 19:30N 59°53' E 030°11'0 0.0
2017-Jul-22 18:57N 59°53' E 030°11'0 0.0
2017-Jul-22 18:29N 59°53' E 030°11'0 0.0
2017-Jul-22 18:00N 59°53' E 030°11'0 0.0
2017-Jul-22 17:30N 59°53' E 030°11'0 0.0
2017-Jul-22 17:00N 59°53' E 030°11'0 0.0
2017-Jul-22 16:30N 59°53' E 030°11'0 0.0
2017-Jul-22 16:00N 59°53' E 030°11'0 0.0
2017-Jul-22 15:26N 59°53' E 030°11'0 0.0
2017-Jul-22 15:00N 59°53' E 030°11'0 0.0
2017-Jul-22 13:59N 59°53' E 030°11'0 0.0
2017-Jul-22 13:30N 59°53' E 030°11'0 0.0
2017-Jul-22 13:00N 59°53' E 030°11'0 0.0
2017-Jul-22 12:30N 59°53' E 030°11'0 0.0
2017-Jul-22 12:00N 59°53' E 030°11'0 0.0
2017-Jul-22 11:30N 59°53' E 030°11'0 0.0
2017-Jul-22 11:00N 59°53' E 030°11'0 0.0
2017-Jul-22 10:29N 59°53' E 030°11'0 0.0
2017-Jul-22 10:00N 59°53' E 030°11'0 0.0
2017-Jul-22 09:30N 59°53' E 030°11'0 0.3
2017-Jul-22 08:54N 59°53' E 030°12'0 0.7
2017-Jul-22 08:30N 59°52' E 030°12'0 0.0
2017-Jul-22 07:57N 59°52' E 030°12'0 0.0
2017-Jul-22 07:30N 59°52' E 030°12'0 0.0
2017-Jul-22 07:00N 59°52' E 030°12'0 0.0
2017-Jul-22 06:30N 59°52' E 030°12'0 0.0
2017-Jul-22 06:00N 59°52' E 030°12'0 0.0
2017-Jul-22 05:30N 59°52' E 030°12'0 0.0
2017-Jul-22 05:00N 59°52' E 030°12'1 1.2
2017-Jul-22 04:30N 59°53' E 030°11'3 6.0
2017-Jul-22 04:00N 59°54' E 030°06'611.1
2017-Jul-22 03:30N 59°56' E 029°55'911.2
2017-Jul-22 02:44N 59°60' E 029°40'311.9
2017-Jul-22 02:27N 60°01' E 029°33'5 9.6
2017-Jul-22 01:57N 60°01' E 029°24'3 5.9
2017-Jul-22 01:30N 60°01' E 029°19'0 0.1
2017-Jul-22 00:59N 60°01' E 029°19'0 0.1
2017-Jul-22 00:29N 60°01' E 029°19'0 0.0
2017-Jul-21 23:56N 60°01' E 029°19'0 0.1
2017-Jul-21 23:29N 60°01' E 029°19'0 0.0
2017-Jul-21 22:59N 60°01' E 029°19'0 0.0
2017-Jul-21 22:29N 60°01' E 029°19'0 0.0
2017-Jul-21 21:59N 60°01' E 029°19'0 0.0
2017-Jul-21 21:29N 60°01' E 029°19'0 0.0
2017-Jul-21 20:56N 60°01' E 029°19'0 0.0
2017-Jul-21 20:29N 60°01' E 029°19'0 0.0
2017-Jul-21 19:59N 60°01' E 029°19'0 0.0
2017-Jul-21 19:29N 60°01' E 029°19'0 0.0
2017-Jul-21 18:59N 60°01' E 029°19'0 0.0
2017-Jul-21 18:29N 60°01' E 029°19'0 0.0
2017-Jul-21 17:59N 60°01' E 029°19'0 0.0
2017-Jul-21 17:30N 60°01' E 029°19'0 0.0
2017-Jul-21 16:59N 60°01' E 029°19'0 0.0
2017-Jul-21 16:30N 60°01' E 029°19'0 0.0
2017-Jul-21 15:59N 60°01' E 029°19'0 0.0
2017-Jul-21 15:29N 60°01' E 029°19'0 0.0
2017-Jul-21 14:59N 60°01' E 029°19'0 0.0
2017-Jul-21 14:29N 60°01' E 029°19'0 0.0
2017-Jul-21 13:53N 60°01' E 029°19'0 0.2
2017-Jul-21 13:26N 60°01' E 029°19'0 0.1
2017-Jul-21 12:56N 60°01' E 029°19'0 0.0
2017-Jul-21 12:29N 60°01' E 029°19'0 0.0
2017-Jul-21 11:53N 60°01' E 029°19'0 0.0
2017-Jul-21 11:20N 60°01' E 029°19'0 0.0
2017-Jul-21 10:59N 60°01' E 029°19'0 0.0
2017-Jul-21 10:29N 60°01' E 029°19'0 0.0
2017-Jul-21 09:59N 60°01' E 029°19'0 0.0
2017-Jul-21 09:29N 60°01' E 029°19'0 0.0
2017-Jul-21 08:59N 60°01' E 029°19'0 0.1
2017-Jul-21 08:29N 60°01' E 029°19'0 0.1
2017-Jul-21 07:59N 60°01' E 029°19'0 0.1
2017-Jul-21 07:29N 60°01' E 029°19'0 0.1
2017-Jul-21 06:56N 60°01' E 029°19'0 0.1
2017-Jul-21 06:29N 60°01' E 029°19'0 0.0
2017-Jul-21 05:59N 60°01' E 029°19'0 0.0
2017-Jul-21 05:29N 60°01' E 029°19'0 0.0
2017-Jul-21 04:59N 60°01' E 029°19'0 0.0
2017-Jul-21 04:08N 60°01' E 029°19'0 0.0
2017-Jul-21 03:59N 60°01' E 029°19'0 0.0
2017-Jul-21 02:47N 60°01' E 029°19'0 0.0
2017-Jul-21 02:17N 60°01' E 029°19'0 0.0
2017-Jul-21 01:41N 60°01' E 029°19'0 0.0
2017-Jul-21 01:24N 60°01' E 029°19'0 0.1
2017-Jul-21 00:59N 60°01' E 029°19'0 0.0
2017-Jul-21 00:29N 60°01' E 029°19'0 0.1
2017-Jul-20 23:56N 60°01' E 029°19'0 0.0
2017-Jul-20 23:29N 60°01' E 029°19'0 0.2
2017-Jul-20 22:59N 60°01' E 029°19'0 0.8
2017-Jul-20 22:30N 60°01' E 029°19'510.4
2017-Jul-20 22:01N 60°02' E 029°08'714.6
2017-Jul-20 21:31N 60°02' E 028°54'816.1
2017-Jul-20 21:00N 60°02' E 028°37'612.6
2017-Jul-20 20:30N 60°03' E 028°25'714.5
2017-Jul-20 20:01N 60°08' E 028°13'816.2
2017-Jul-20 19:30N 60°10' E 027°58'612.4
2017-Jul-20 19:01N 60°10' E 027°45'714.4
2017-Jul-20 18:30N 60°07' E 027°32'714.4
2017-Jul-20 18:01N 60°03' E 027°20'714.3
2017-Jul-20 17:31N 59°59' E 027°08'713.9
2017-Jul-20 17:00N 59°59' E 026°54'714.8
2017-Jul-20 16:30N 59°59' E 026°39'714.2
2017-Jul-20 16:00N 59°57' E 026°25'714.6
2017-Jul-20 15:31N 59°55' E 026°12'714.5
2017-Jul-20 15:01N 59°53' E 025°58'1514.5
2017-Jul-20 14:01N 59°50' E 025°29'714.5
2017-Jul-20 13:30N 59°48' E 025°15'714.7
2017-Jul-20 13:01N 59°47' E 025°01'714.7
2017-Jul-20 12:31N 59°46' E 024°46'714.6
2017-Jul-20 12:01N 59°44' E 024°32'714.5
2017-Jul-20 11:31N 59°42' E 024°18'714.5
2017-Jul-20 11:00N 59°40' E 024°05'714.4
2017-Jul-20 10:31N 59°38' E 023°51'714.2
2017-Jul-20 10:01N 59°35' E 023°38'714.3
2017-Jul-20 09:31N 59°33' E 023°25'714.4
2017-Jul-20 09:01N 59°30' E 023°12'714.3
2017-Jul-20 08:30N 59°28' E 022°58'714.5
2017-Jul-20 08:01N 59°26' E 022°45'714.3
2017-Jul-20 07:31N 59°23' E 022°31'714.3
2017-Jul-20 07:01N 59°21' E 022°18'714.4
2017-Jul-20 06:31N 59°19' E 022°04'714.4
2017-Jul-20 06:01N 59°17' E 021°51'714.4
2017-Jul-20 05:31N 59°15' E 021°38'714.4
2017-Jul-20 05:01N 59°13' E 021°24'714.4
2017-Jul-20 04:31N 59°10' E 021°11'714.5
2017-Jul-20 04:01N 59°08' E 020°57'714.5
2017-Jul-20 03:31N 59°06' E 020°44'714.4
2017-Jul-20 03:01N 59°04' E 020°31'714.4
2017-Jul-20 02:30N 59°01' E 020°17'714.4
2017-Jul-20 01:59N 58°59' E 020°03'814.5
2017-Jul-20 01:24N 58°56' E 019°48'614.5
2017-Jul-20 01:00N 58°54' E 019°37'914.7
2017-Jul-20 00:22N 58°51' E 019°20'1914.1
2017-Jul-19 23:01N 58°45' E 018°46'014.0
2017-Jul-19 23:00N 58°45' E 018°45'714.1
2017-Jul-19 22:31N 58°43' E 018°32'3114.0
2017-Jul-19 20:20N 58°37' E 017°35'514.3
2017-Jul-19 20:01N 58°38' E 017°26'612.5
2017-Jul-19 19:31N 58°37' E 017°14'5 9.2
2017-Jul-19 19:00N 58°40' E 017°07'0 0.0
2017-Jul-19 18:30N 58°40' E 017°07'0 0.0
2017-Jul-19 17:55N 58°40' E 017°07'0 0.0
2017-Jul-19 17:28N 58°40' E 017°07'0 0.0
2017-Jul-19 16:55N 58°40' E 017°07'0 0.0
2017-Jul-19 16:28N 58°40' E 017°07'0 0.0
2017-Jul-19 15:58N 58°40' E 017°07'0 0.0
2017-Jul-19 15:25N 58°40' E 017°07'0 0.0
2017-Jul-19 14:58N 58°40' E 017°07'0 0.0
2017-Jul-19 14:28N 58°40' E 017°07'0 0.0
2017-Jul-19 13:58N 58°40' E 017°07'0 0.0
2017-Jul-19 13:28N 58°40' E 017°07'0 0.0
2017-Jul-19 12:58N 58°40' E 017°07'0 0.0
2017-Jul-19 12:28N 58°40' E 017°07'0 0.0
2017-Jul-19 11:55N 58°40' E 017°07'0 0.0
2017-Jul-19 11:28N 58°40' E 017°07'0 0.0
2017-Jul-19 10:49N 58°40' E 017°07'0 0.0
2017-Jul-19 10:25N 58°40' E 017°07'0 0.0
2017-Jul-19 09:58N 58°40' E 017°07'0 0.0
2017-Jul-19 09:28N 58°40' E 017°07'0 0.0
2017-Jul-19 08:58N 58°40' E 017°07'0 0.0
2017-Jul-19 08:28N 58°40' E 017°07'0 0.0
2017-Jul-19 07:58N 58°40' E 017°07'0 0.0
2017-Jul-19 07:16N 58°40' E 017°07'0 0.0
2017-Jul-19 06:58N 58°40' E 017°07'0 0.0
2017-Jul-19 06:28N 58°40' E 017°07'0 0.0
2017-Jul-19 05:58N 58°40' E 017°07'0 0.0
2017-Jul-19 05:28N 58°40' E 017°07'0 0.0
2017-Jul-19 04:43N 58°40' E 017°07'0 0.0
2017-Jul-19 04:28N 58°40' E 017°07'0 0.0
2017-Jul-19 03:58N 58°40' E 017°07'0 0.0
2017-Jul-19 03:28N 58°40' E 017°07'0 0.0
2017-Jul-19 02:58N 58°40' E 017°07'0 0.0
2017-Jul-19 02:28N 58°40' E 017°07'0 0.0
2017-Jul-19 01:58N 58°40' E 017°07'0 0.0
2017-Jul-19 01:25N 58°40' E 017°07'0 0.0
2017-Jul-19 00:58N 58°40' E 017°07'0 0.0
2017-Jul-19 00:28N 58°40' E 017°07'0 0.0
2017-Jul-18 23:58N 58°40' E 017°07'0 0.0
2017-Jul-18 23:28N 58°40' E 017°07'0 0.0
2017-Jul-18 22:58N 58°40' E 017°07'0 0.0
2017-Jul-18 22:28N 58°40' E 017°07'0 0.0
2017-Jul-18 21:58N 58°40' E 017°07'0 0.0
2017-Jul-18 21:28N 58°40' E 017°07'0 0.0
2017-Jul-18 20:58N 58°40' E 017°07'0 0.0
2017-Jul-18 20:28N 58°40' E 017°07'0 0.0
2017-Jul-18 19:58N 58°40' E 017°07'0 0.0
2017-Jul-18 19:22N 58°40' E 017°07'0 0.0
2017-Jul-18 18:58N 58°40' E 017°07'0 0.0
2017-Jul-18 18:28N 58°40' E 017°07'0 0.0
2017-Jul-18 17:58N 58°40' E 017°07'0 0.0
2017-Jul-18 17:28N 58°40' E 017°07'0 0.0
2017-Jul-18 16:52N 58°40' E 017°07'0 0.0
2017-Jul-18 16:16N 58°40' E 017°07'0 0.0
2017-Jul-18 15:58N 58°40' E 017°07'0 0.0
2017-Jul-18 15:28N 58°40' E 017°07'0 0.0
2017-Jul-18 15:00N 58°40' E 017°07'5 5.4
2017-Jul-18 14:00N 58°37' E 017°16'612.7
2017-Jul-18 13:30N 58°38' E 017°28'6110.7
2017-Jul-18 07:50N 59°07' E 019°10'411.4
2017-Jul-18 07:30N 59°10' E 019°15'611.5
2017-Jul-18 07:00N 59°13' E 019°24'611.3
2017-Jul-18 06:30N 59°18' E 019°31'611.4
2017-Jul-18 06:00N 59°21' E 019°39'611.8
2017-Jul-18 05:30N 59°26' E 019°48'611.6
2017-Jul-18 05:00N 59°30' E 019°56'611.8
2017-Jul-18 04:30N 59°36' E 019°58'612.0
2017-Jul-18 04:00N 59°41' E 019°51'612.0
2017-Jul-18 03:30N 59°45' E 019°44'612.3
2017-Jul-18 03:00N 59°50' E 019°36'612.2
2017-Jul-18 02:31N 59°55' E 019°28'612.2
2017-Jul-18 02:00N 59°59' E 019°20'612.2
2017-Jul-18 01:31N 60°04' E 019°13'612.4
2017-Jul-18 01:01N 60°09' E 019°05'612.0
2017-Jul-18 00:31N 60°15' E 019°01'612.3
2017-Jul-18 00:01N 60°21' E 018°60'612.3
2017-Jul-17 23:31N 60°27' E 018°60'612.2
2017-Jul-17 23:00N 60°33' E 019°01'611.9
2017-Jul-17 22:31N 60°39' E 019°04'611.7
2017-Jul-17 22:00N 60°44' E 019°07'611.4
2017-Jul-17 21:30N 60°50' E 019°10'611.8
2017-Jul-17 21:00N 60°56' E 019°13'612.5
2017-Jul-17 20:31N 61°02' E 019°16'611.5
2017-Jul-17 20:00N 61°07' E 019°19'611.3
2017-Jul-17 19:30N 61°13' E 019°21'611.7
2017-Jul-17 19:00N 61°18' E 019°24'611.6
2017-Jul-17 18:30N 61°24' E 019°27'611.5
2017-Jul-17 18:00N 61°30' E 019°30'611.6
2017-Jul-17 17:31N 61°35' E 019°33'611.6
2017-Jul-17 16:57N 61°41' E 019°36'511.6
2017-Jul-17 16:30N 61°46' E 019°39'611.7
2017-Jul-17 16:00N 61°52' E 019°42'611.6
2017-Jul-17 15:31N 61°58' E 019°45'611.3
2017-Jul-17 15:00N 62°03' E 019°47'611.3
2017-Jul-17 14:30N 62°09' E 019°49'611.3
2017-Jul-17 14:00N 62°14' E 019°52'611.1
2017-Jul-17 13:30N 62°20' E 019°54'611.3
2017-Jul-17 13:00N 62°25' E 019°57'611.6
2017-Jul-17 12:30N 62°31' E 019°60'611.7
2017-Jul-17 12:01N 62°37' E 020°03'611.8
2017-Jul-17 11:30N 62°42' E 020°06'611.9
2017-Jul-17 11:00N 62°48' E 020°09'611.9
2017-Jul-17 10:30N 62°54' E 020°13'612.0
2017-Jul-17 10:00N 62°60' E 020°16'612.0
2017-Jul-17 09:30N 63°06' E 020°19'612.0
2017-Jul-17 09:00N 63°11' E 020°22'611.8
2017-Jul-17 08:31N 63°17' E 020°25'611.5
2017-Jul-17 08:00N 63°22' E 020°30'611.5
2017-Jul-17 07:30N 63°27' E 020°37'611.2
2017-Jul-17 07:00N 63°32' E 020°43'611.5
2017-Jul-17 06:30N 63°34' E 020°56'510.9
2017-Jul-17 06:00N 63°37' E 021°06'611.2
2017-Jul-17 05:30N 63°41' E 021°12'611.2
2017-Jul-17 05:00N 63°46' E 021°18'511.0
2017-Jul-17 04:30N 63°51' E 021°24'510.8
2017-Jul-17 04:00N 63°56' E 021°30'511.0
2017-Jul-17 03:30N 64°01' E 021°35'610.9
2017-Jul-17 02:58N 64°06' E 021°41'510.9
2017-Jul-17 02:30N 64°11' E 021°47'611.3
2017-Jul-17 02:00N 64°16' E 021°53'611.2
2017-Jul-17 01:30N 64°21' E 021°58'611.2
2017-Jul-17 01:00N 64°26' E 022°04'611.5
2017-Jul-17 00:30N 64°31' E 022°11'611.6
2017-Jul-17 00:00N 64°36' E 022°17'611.5
2017-Jul-16 23:30N 64°41' E 022°23'611.4
2017-Jul-16 23:00N 64°46' E 022°29'611.2
2017-Jul-16 22:27N 64°51' E 022°36'511.4
2017-Jul-16 22:00N 64°56' E 022°41'611.3
2017-Jul-16 21:30N 65°01' E 022°46'611.9
2017-Jul-16 21:00N 65°07' E 022°48'712.8
2017-Jul-16 20:30N 65°14' E 022°48'510.4
2017-Jul-16 20:00N 65°19' E 022°47'5 9.9
2017-Jul-16 19:30N 65°23' E 022°40'511.0
2017-Jul-16 19:00N 65°27' E 022°31'510.4
2017-Jul-16 18:30N 65°30' E 022°22'3 5.8
2017-Jul-16 17:59N 65°33' E 022°17'0 0.0
2017-Jul-16 16:29N 65°33' E 022°17'0 0.0
2017-Jul-16 15:56N 65°33' E 022°17'0 0.0
2017-Jul-16 09:48N 65°33' E 022°17'0 0.0
2017-Jul-16 09:26N 65°33' E 022°17'0 0.0
2017-Jul-16 08:58N 65°33' E 022°17'0 0.0
2017-Jul-16 08:29N 65°33' E 022°17'0 0.0
2017-Jul-16 07:57N 65°33' E 022°17'0 0.0
2017-Jul-16 07:30N 65°33' E 022°17'0 0.0
2017-Jul-16 06:59N 65°33' E 022°17'0 0.0
2017-Jul-16 06:30N 65°33' E 022°17'0 0.0
2017-Jul-16 05:59N 65°33' E 022°17'0 0.0
2017-Jul-16 05:29N 65°33' E 022°17'0 0.0
2017-Jul-16 04:59N 65°33' E 022°17'0 0.0
2017-Jul-16 04:29N 65°33' E 022°17'0 0.0
2017-Jul-16 03:59N 65°33' E 022°17'0 0.0
2017-Jul-16 03:29N 65°33' E 022°17'0 0.0
2017-Jul-16 02:57N 65°33' E 022°17'0 0.0
2017-Jul-16 02:27N 65°33' E 022°17'0 0.0
2017-Jul-16 01:54N 65°33' E 022°17'0 0.0
2017-Jul-16 01:29N 65°33' E 022°17'0 0.0
2017-Jul-15 22:12N 65°33' E 022°17'0 0.0
2017-Jul-15 21:59N 65°33' E 022°17'0 0.0
2017-Jul-15 21:27N 65°33' E 022°17'0 0.0
2017-Jul-15 20:58N 65°33' E 022°17'0 0.0
2017-Jul-15 20:29N 65°33' E 022°17'0 0.0
2017-Jul-15 19:58N 65°33' E 022°17'0 0.0
2017-Jul-15 19:29N 65°33' E 022°17'0 0.0
2017-Jul-15 18:58N 65°33' E 022°17'0 0.0
2017-Jul-15 18:29N 65°33' E 022°17'0 0.0
2017-Jul-15 17:59N 65°33' E 022°17'0 0.0
2017-Jul-15 17:29N 65°33' E 022°17'0 0.0
2017-Jul-15 16:59N 65°33' E 022°17'0 0.0
2017-Jul-15 16:29N 65°33' E 022°17'0 0.0
2017-Jul-15 15:59N 65°33' E 022°17'0 0.0
2017-Jul-15 15:26N 65°33' E 022°17'0 0.0
2017-Jul-15 15:00N 65°33' E 022°17'1 0.9
2017-Jul-15 13:59N 65°33' E 022°15'0 0.0
2017-Jul-15 13:29N 65°33' E 022°15'0 0.0
2017-Jul-15 12:59N 65°33' E 022°15'0 0.0
2017-Jul-15 12:29N 65°33' E 022°15'0 0.0
2017-Jul-15 11:59N 65°33' E 022°15'0 0.0
2017-Jul-13 18:11N 65°33' E 022°16'0 0.0
2017-Jul-13 17:53N 65°33' E 022°16'0 0.0
2017-Jul-13 16:44N 65°33' E 022°16'0 0.0
2017-Jul-13 11:38N 65°33' E 022°16'  

Dump ship's entire track history